sensor_id;sensor_type;location;lat;lon;timestamp;temperature;humidity
73547;SHT30;61807;48.384;-4.386;2023-02-21T00:00:30;9.74;76.33
73547;SHT30;61807;48.384;-4.386;2023-02-21T00:03:14;9.71;76.33
73547;SHT30;61807;48.384;-4.386;2023-02-21T00:05:58;9.69;76.40
73547;SHT30;61807;48.384;-4.386;2023-02-21T00:08:42;9.71;76.45
73547;SHT30;61807;48.384;-4.386;2023-02-21T00:11:26;9.68;76.39
73547;SHT30;61807;48.384;-4.386;2023-02-21T00:14:10;9.69;76.40
73547;SHT30;61807;48.384;-4.386;2023-02-21T00:16:54;9.65;76.35
73547;SHT30;61807;48.384;-4.386;2023-02-21T00:19:39;9.66;76.40
73547;SHT30;61807;48.384;-4.386;2023-02-21T00:22:23;9.63;76.41
73547;SHT30;61807;48.384;-4.386;2023-02-21T00:25:07;9.63;76.38
73547;SHT30;61807;48.384;-4.386;2023-02-21T00:27:51;9.62;76.44
73547;SHT30;61807;48.384;-4.386;2023-02-21T00:30:35;9.61;76.53
73547;SHT30;61807;48.384;-4.386;2023-02-21T00:33:19;9.59;76.55
73547;SHT30;61807;48.384;-4.386;2023-02-21T00:36:03;9.55;76.64
73547;SHT30;61807;48.384;-4.386;2023-02-21T00:38:47;9.55;76.66
73547;SHT30;61807;48.384;-4.386;2023-02-21T00:41:31;9.54;76.63
73547;SHT30;61807;48.384;-4.386;2023-02-21T00:44:15;9.55;76.52
73547;SHT30;61807;48.384;-4.386;2023-02-21T00:46:59;9.51;76.51
73547;SHT30;61807;48.384;-4.386;2023-02-21T00:49:43;9.51;76.59
73547;SHT30;61807;48.384;-4.386;2023-02-21T00:52:27;9.51;76.60
73547;SHT30;61807;48.384;-4.386;2023-02-21T00:55:12;9.48;76.52
73547;SHT30;61807;48.384;-4.386;2023-02-21T00:57:56;9.44;76.57
73547;SHT30;61807;48.384;-4.386;2023-02-21T01:00:40;9.42;76.59
73547;SHT30;61807;48.384;-4.386;2023-02-21T01:03:24;9.38;76.71
73547;SHT30;61807;48.384;-4.386;2023-02-21T01:06:10;9.35;76.73
73547;SHT30;61807;48.384;-4.386;2023-02-21T01:08:54;9.35;76.79
73547;SHT30;61807;48.384;-4.386;2023-02-21T01:11:38;9.35;76.76
73547;SHT30;61807;48.384;-4.386;2023-02-21T01:14:22;9.32;76.87
73547;SHT30;61807;48.384;-4.386;2023-02-21T01:17:06;9.32;76.96
73547;SHT30;61807;48.384;-4.386;2023-02-21T01:19:49;9.32;76.97
73547;SHT30;61807;48.384;-4.386;2023-02-21T01:22:33;9.32;77.01
73547;SHT30;61807;48.384;-4.386;2023-02-21T01:25:17;9.34;77.02
73547;SHT30;61807;48.384;-4.386;2023-02-21T01:28:01;9.28;77.11
73547;SHT30;61807;48.384;-4.386;2023-02-21T01:30:45;9.30;77.16
73547;SHT30;61807;48.384;-4.386;2023-02-21T01:33:35;9.26;77.29
73547;SHT30;61807;48.384;-4.386;2023-02-21T01:36:19;9.20;77.30
73547;SHT30;61807;48.384;-4.386;2023-02-21T01:39:03;9.26;77.49
73547;SHT30;61807;48.384;-4.386;2023-02-21T01:41:47;9.24;77.44
73547;SHT30;61807;48.384;-4.386;2023-02-21T01:44:40;9.26;77.40
73547;SHT30;61807;48.384;-4.386;2023-02-21T01:47:24;9.26;77.43
73547;SHT30;61807;48.384;-4.386;2023-02-21T01:53:06;9.26;77.39
73547;SHT30;61807;48.384;-4.386;2023-02-21T01:55:50;9.27;77.41
73547;SHT30;61807;48.384;-4.386;2023-02-21T01:58:34;9.24;77.27
73547;SHT30;61807;48.384;-4.386;2023-02-21T02:01:46;9.23;77.38
73547;SHT30;61807;48.384;-4.386;2023-02-21T02:04:32;9.20;77.28
73547;SHT30;61807;48.384;-4.386;2023-02-21T02:07:17;9.14;77.25
73547;SHT30;61807;48.384;-4.386;2023-02-21T02:10:01;9.08;77.26
73547;SHT30;61807;48.384;-4.386;2023-02-21T02:34:56;9.03;77.31
73547;SHT30;61807;48.384;-4.386;2023-02-21T02:37:34;9.01;77.23
73547;SHT30;61807;48.384;-4.386;2023-02-21T02:40:08;9.01;77.25
73547;SHT30;61807;48.384;-4.386;2023-02-21T02:45:28;8.97;77.15
73547;SHT30;61807;48.384;-4.386;2023-02-21T02:48:02;8.93;77.24
73547;SHT30;61807;48.384;-4.386;2023-02-21T02:50:31;8.96;77.09
73547;SHT30;61807;48.384;-4.386;2023-02-21T02:53:01;8.90;77.06
73547;SHT30;61807;48.384;-4.386;2023-02-21T02:55:38;8.87;77.15
73547;SHT30;61807;48.384;-4.386;2023-02-21T02:58:05;8.84;77.29
73547;SHT30;61807;48.384;-4.386;2023-02-21T03:00:33;8.84;77.15
73547;SHT30;61807;48.384;-4.386;2023-02-21T03:03:14;8.81;77.20
73547;SHT30;61807;48.384;-4.386;2023-02-21T03:06:01;8.83;77.26
73547;SHT30;61807;48.384;-4.386;2023-02-21T03:08:38;8.87;77.23
73547;SHT30;61807;48.384;-4.386;2023-02-21T03:11:14;8.83;77.18
73547;SHT30;61807;48.384;-4.386;2023-02-21T03:16:38;8.79;77.26
73547;SHT30;61807;48.384;-4.386;2023-02-21T03:19:16;8.79;77.28
73547;SHT30;61807;48.384;-4.386;2023-02-21T03:21:46;8.80;77.25
73547;SHT30;61807;48.384;-4.386;2023-02-21T03:24:15;8.77;77.17
73547;SHT30;61807;48.384;-4.386;2023-02-21T03:26:45;8.75;77.21
73547;SHT30;61807;48.384;-4.386;2023-02-21T03:29:13;8.70;77.22
73547;SHT30;61807;48.384;-4.386;2023-02-21T03:31:45;8.66;77.16
73547;SHT30;61807;48.384;-4.386;2023-02-21T03:34:12;8.60;77.27
73547;SHT30;61807;48.384;-4.386;2023-02-21T03:36:38;8.56;77.39
73547;SHT30;61807;48.384;-4.386;2023-02-21T03:39:04;8.55;77.42
73547;SHT30;61807;48.384;-4.386;2023-02-21T03:41:29;8.55;77.41
73547;SHT30;61807;48.384;-4.386;2023-02-21T03:43:55;8.50;77.28
73547;SHT30;61807;48.384;-4.386;2023-02-21T03:46:20;8.46;77.18
73547;SHT30;61807;48.384;-4.386;2023-02-21T03:48:46;8.45;77.16
73547;SHT30;61807;48.384;-4.386;2023-02-21T03:51:11;8.42;77.06
73547;SHT30;61807;48.384;-4.386;2023-02-21T03:53:37;8.41;77.10
73547;SHT30;61807;48.384;-4.386;2023-02-21T03:56:03;8.39;76.99
73547;SHT30;61807;48.384;-4.386;2023-02-21T03:58:28;8.37;76.92
73547;SHT30;61807;48.384;-4.386;2023-02-21T04:00:53;8.35;77.03
73547;SHT30;61807;48.384;-4.386;2023-02-21T04:03:19;8.34;76.97
73547;SHT30;61807;48.384;-4.386;2023-02-21T04:05:45;8.31;76.98
73547;SHT30;61807;48.384;-4.386;2023-02-21T04:08:10;8.29;76.86
73547;SHT30;61807;48.384;-4.386;2023-02-21T04:10:36;8.25;76.93
73547;SHT30;61807;48.384;-4.386;2023-02-21T04:13:01;8.22;77.10
73547;SHT30;61807;48.384;-4.386;2023-02-21T04:15:26;8.21;77.08
73547;SHT30;61807;48.384;-4.386;2023-02-21T04:17:52;8.21;76.99
73547;SHT30;61807;48.384;-4.386;2023-02-21T04:20:17;8.15;77.03
73547;SHT30;61807;48.384;-4.386;2023-02-21T04:22:42;8.08;77.15
73547;SHT30;61807;48.384;-4.386;2023-02-21T04:25:08;8.07;77.15
73547;SHT30;61807;48.384;-4.386;2023-02-21T04:27:33;8.02;77.25
73547;SHT30;61807;48.384;-4.386;2023-02-21T04:29:59;8.01;77.22
73547;SHT30;61807;48.384;-4.386;2023-02-21T04:32:25;8.00;77.13
73547;SHT30;61807;48.384;-4.386;2023-02-21T04:34:51;7.95;77.17
73547;SHT30;61807;48.384;-4.386;2023-02-21T04:37:17;7.93;77.09
73547;SHT30;61807;48.384;-4.386;2023-02-21T04:39:43;7.91;77.15
73547;SHT30;61807;48.384;-4.386;2023-02-21T04:42:08;7.87;77.21
73547;SHT30;61807;48.384;-4.386;2023-02-21T04:44:35;7.90;77.21
73547;SHT30;61807;48.384;-4.386;2023-02-21T04:47:00;7.89;77.20
73547;SHT30;61807;48.384;-4.386;2023-02-21T04:49:26;7.86;77.11
73547;SHT30;61807;48.384;-4.386;2023-02-21T04:51:52;7.81;77.12
73547;SHT30;61807;48.384;-4.386;2023-02-21T04:54:17;7.79;77.16
73547;SHT30;61807;48.384;-4.386;2023-02-21T04:56:43;7.76;77.29
73547;SHT30;61807;48.384;-4.386;2023-02-21T04:59:08;7.81;77.18
73547;SHT30;61807;48.384;-4.386;2023-02-21T05:01:34;7.77;77.03
73547;SHT30;61807;48.384;-4.386;2023-02-21T05:03:59;7.74;77.06
73547;SHT30;61807;48.384;-4.386;2023-02-21T05:06:26;7.74;77.07
73547;SHT30;61807;48.384;-4.386;2023-02-21T05:08:52;7.77;76.90
73547;SHT30;61807;48.384;-4.386;2023-02-21T05:11:19;7.71;76.95
73547;SHT30;61807;48.384;-4.386;2023-02-21T05:13:45;7.71;76.80
73547;SHT30;61807;48.384;-4.386;2023-02-21T05:16:11;7.69;76.93
73547;SHT30;61807;48.384;-4.386;2023-02-21T05:18:36;7.66;76.90
73547;SHT30;61807;48.384;-4.386;2023-02-21T05:21:05;7.67;76.83
73547;SHT30;61807;48.384;-4.386;2023-02-21T05:23:32;7.62;76.89
73547;SHT30;61807;48.384;-4.386;2023-02-21T05:26:05;7.56;76.85
73547;SHT30;61807;48.384;-4.386;2023-02-21T05:28:30;7.58;76.83
73547;SHT30;61807;48.384;-4.386;2023-02-21T05:30:56;7.56;76.90
73547;SHT30;61807;48.384;-4.386;2023-02-21T05:33:22;7.56;76.82
73547;SHT30;61807;48.384;-4.386;2023-02-21T05:35:49;7.50;76.87
73547;SHT30;61807;48.384;-4.386;2023-02-21T05:38:15;7.52;76.83
73547;SHT30;61807;48.384;-4.386;2023-02-21T05:40:41;7.46;76.80
73547;SHT30;61807;48.384;-4.386;2023-02-21T05:43:06;7.49;76.88
73547;SHT30;61807;48.384;-4.386;2023-02-21T05:45:32;7.48;76.79
73547;SHT30;61807;48.384;-4.386;2023-02-21T05:47:57;7.43;76.74
73547;SHT30;61807;48.384;-4.386;2023-02-21T05:50:25;7.46;76.78
73547;SHT30;61807;48.384;-4.386;2023-02-21T05:52:51;7.43;76.66
73547;SHT30;61807;48.384;-4.386;2023-02-21T05:55:17;7.43;76.70
73547;SHT30;61807;48.384;-4.386;2023-02-21T05:57:43;7.40;76.60
73547;SHT30;61807;48.384;-4.386;2023-02-21T06:00:18;7.36;76.51
73547;SHT30;61807;48.384;-4.386;2023-02-21T06:02:44;7.40;76.55
73547;SHT30;61807;48.384;-4.386;2023-02-21T06:05:09;7.38;76.55
73547;SHT30;61807;48.384;-4.386;2023-02-21T06:07:35;7.40;76.55
73547;SHT30;61807;48.384;-4.386;2023-02-21T06:10:01;7.40;76.55
73547;SHT30;61807;48.384;-4.386;2023-02-21T06:12:27;7.43;76.44
73547;SHT30;61807;48.384;-4.386;2023-02-21T06:14:52;7.46;76.30
73547;SHT30;61807;48.384;-4.386;2023-02-21T06:17:17;7.46;76.31
73547;SHT30;61807;48.384;-4.386;2023-02-21T06:19:43;7.52;76.18
73547;SHT30;61807;48.384;-4.386;2023-02-21T06:22:08;7.56;76.01
73547;SHT30;61807;48.384;-4.386;2023-02-21T06:24:34;7.59;75.82
73547;SHT30;61807;48.384;-4.386;2023-02-21T06:27:00;7.62;75.78
73547;SHT30;61807;48.384;-4.386;2023-02-21T06:29:25;7.65;75.71
73547;SHT30;61807;48.384;-4.386;2023-02-21T06:31:56;7.69;75.48
73547;SHT30;61807;48.384;-4.386;2023-02-21T06:34:21;7.70;75.42
73547;SHT30;61807;48.384;-4.386;2023-02-21T06:36:51;7.76;75.51
73547;SHT30;61807;48.384;-4.386;2023-02-21T06:39:16;7.84;75.20
73547;SHT30;61807;48.384;-4.386;2023-02-21T06:41:42;7.84;74.95
73547;SHT30;61807;48.384;-4.386;2023-02-21T06:44:07;7.84;74.95
73547;SHT30;61807;48.384;-4.386;2023-02-21T06:46:32;7.90;74.98
73547;SHT30;61807;48.384;-4.386;2023-02-21T06:49:00;7.98;74.72
73547;SHT30;61807;48.384;-4.386;2023-02-21T06:51:26;8.02;74.51
73547;SHT30;61807;48.384;-4.386;2023-02-21T06:53:54;8.04;74.32
73547;SHT30;61807;48.384;-4.386;2023-02-21T06:56:19;8.00;74.41
73547;SHT30;61807;48.384;-4.386;2023-02-21T06:58:45;8.04;74.57
73547;SHT30;61807;48.384;-4.386;2023-02-21T07:01:10;8.08;74.37
73547;SHT30;61807;48.384;-4.386;2023-02-21T07:03:40;8.10;74.28
73547;SHT30;61807;48.384;-4.386;2023-02-21T07:06:07;8.10;74.24
73547;SHT30;61807;48.384;-4.386;2023-02-21T07:08:33;8.15;74.46
73547;SHT30;61807;48.384;-4.386;2023-02-21T07:10:58;8.24;74.19
73547;SHT30;61807;48.384;-4.386;2023-02-21T07:13:23;8.28;73.93
73547;SHT30;61807;48.384;-4.386;2023-02-21T07:15:49;8.31;74.07
73547;SHT30;61807;48.384;-4.386;2023-02-21T07:18:14;8.38;73.96
73547;SHT30;61807;48.384;-4.386;2023-02-21T07:20:40;8.49;73.76
73547;SHT30;61807;48.384;-4.386;2023-02-21T07:23:05;8.60;73.64
73547;SHT30;61807;48.384;-4.386;2023-02-21T07:25:30;8.73;73.36
73547;SHT30;61807;48.384;-4.386;2023-02-21T07:27:56;8.81;73.15
73547;SHT30;61807;48.384;-4.386;2023-02-21T07:30:21;8.87;73.06
73547;SHT30;61807;48.384;-4.386;2023-02-21T07:32:46;8.93;72.93
73547;SHT30;61807;48.384;-4.386;2023-02-21T07:35:12;9.00;72.87
73547;SHT30;61807;48.384;-4.386;2023-02-21T07:37:37;9.11;72.79
73547;SHT30;61807;48.384;-4.386;2023-02-21T07:40:04;9.18;72.67
73547;SHT30;61807;48.384;-4.386;2023-02-21T07:42:31;9.24;72.63
73547;SHT30;61807;48.384;-4.386;2023-02-21T07:44:57;9.30;72.67
73547;SHT30;61807;48.384;-4.386;2023-02-21T07:47:24;9.41;72.67
73547;SHT30;61807;48.384;-4.386;2023-02-21T07:49:49;9.49;72.57
73547;SHT30;61807;48.384;-4.386;2023-02-21T07:52:16;9.59;72.27
73547;SHT30;61807;48.384;-4.386;2023-02-21T07:54:42;9.66;72.04
73547;SHT30;61807;48.384;-4.386;2023-02-21T07:57:07;9.65;72.08
73547;SHT30;61807;48.384;-4.386;2023-02-21T07:59:32;9.74;72.06
73547;SHT30;61807;48.384;-4.386;2023-02-21T08:01:58;9.79;71.80
73547;SHT30;61807;48.384;-4.386;2023-02-21T08:04:23;9.76;71.79
73547;SHT30;61807;48.384;-4.386;2023-02-21T08:06:50;9.82;71.91
73547;SHT30;61807;48.384;-4.386;2023-02-21T08:09:15;9.88;71.82
73547;SHT30;61807;48.384;-4.386;2023-02-21T08:11:41;9.97;71.60
73547;SHT30;61807;48.384;-4.386;2023-02-21T08:14:06;9.97;71.47
73547;SHT30;61807;48.384;-4.386;2023-02-21T08:16:32;10.00;71.44
73547;SHT30;61807;48.384;-4.386;2023-02-21T08:18:58;9.99;71.53
73547;SHT30;61807;48.384;-4.386;2023-02-21T08:21:24;10.07;71.43
73547;SHT30;61807;48.384;-4.386;2023-02-21T08:23:53;10.13;71.35
73547;SHT30;61807;48.384;-4.386;2023-02-21T08:26:19;10.18;71.30
73547;SHT30;61807;48.384;-4.386;2023-02-21T08:28:44;10.24;71.23
73547;SHT30;61807;48.384;-4.386;2023-02-21T08:31:09;10.29;71.19
73547;SHT30;61807;48.384;-4.386;2023-02-21T08:33:35;10.32;71.18
73547;SHT30;61807;48.384;-4.386;2023-02-21T08:36:00;10.36;71.27
73547;SHT30;61807;48.384;-4.386;2023-02-21T08:38:25;10.37;71.22
73547;SHT30;61807;48.384;-4.386;2023-02-21T08:40:51;10.38;71.22
73547;SHT30;61807;48.384;-4.386;2023-02-21T08:43:17;10.38;71.10
73547;SHT30;61807;48.384;-4.386;2023-02-21T08:45:42;10.36;71.29
73547;SHT30;61807;48.384;-4.386;2023-02-21T08:48:07;10.36;71.41
73547;SHT30;61807;48.384;-4.386;2023-02-21T08:50:33;10.40;71.42
73547;SHT30;61807;48.384;-4.386;2023-02-21T08:52:58;10.40;71.46
73547;SHT30;61807;48.384;-4.386;2023-02-21T08:55:24;10.41;71.39
73547;SHT30;61807;48.384;-4.386;2023-02-21T08:57:51;10.38;71.56
73547;SHT30;61807;48.384;-4.386;2023-02-21T09:00:20;10.41;71.50
73547;SHT30;61807;48.384;-4.386;2023-02-21T09:02:50;10.41;71.51
73547;SHT30;61807;48.384;-4.386;2023-02-21T09:05:19;10.38;71.60
73547;SHT30;61807;48.384;-4.386;2023-02-21T09:07:48;10.38;71.73
73547;SHT30;61807;48.384;-4.386;2023-02-21T09:10:13;10.33;71.84
73547;SHT30;61807;48.384;-4.386;2023-02-21T09:12:39;10.30;71.98
73547;SHT30;61807;48.384;-4.386;2023-02-21T09:15:06;10.30;72.06
73547;SHT30;61807;48.384;-4.386;2023-02-21T09:17:31;10.32;72.13
73547;SHT30;61807;48.384;-4.386;2023-02-21T09:19:59;10.32;72.13
73547;SHT30;61807;48.384;-4.386;2023-02-21T09:22:25;10.32;72.27
73547;SHT30;61807;48.384;-4.386;2023-02-21T09:24:50;10.30;72.21
73547;SHT30;61807;48.384;-4.386;2023-02-21T09:27:16;10.26;72.25
73547;SHT30;61807;48.384;-4.386;2023-02-21T09:29:42;10.21;72.35
73547;SHT30;61807;48.384;-4.386;2023-02-21T09:32:07;10.18;72.41
73547;SHT30;61807;48.384;-4.386;2023-02-21T09:34:33;10.14;72.63
73547;SHT30;61807;48.384;-4.386;2023-02-21T09:36:58;10.12;72.66
73547;SHT30;61807;48.384;-4.386;2023-02-21T09:39:24;10.12;72.73
73547;SHT30;61807;48.384;-4.386;2023-02-21T09:41:50;10.13;72.63
73547;SHT30;61807;48.384;-4.386;2023-02-21T09:44:19;10.13;72.85
73547;SHT30;61807;48.384;-4.386;2023-02-21T09:46:53;10.18;72.86
73547;SHT30;61807;48.384;-4.386;2023-02-21T09:49:34;10.18;73.15
73547;SHT30;61807;48.384;-4.386;2023-02-21T09:52:01;10.20;73.16
73547;SHT30;61807;48.384;-4.386;2023-02-21T09:57:00;10.27;73.45
73547;SHT30;61807;48.384;-4.386;2023-02-21T09:59:26;10.34;73.52
73547;SHT30;61807;48.384;-4.386;2023-02-21T10:08:20;10.34;72.94
73547;SHT30;61807;48.384;-4.386;2023-02-21T10:10:55;10.37;73.52
73547;SHT30;61807;48.384;-4.386;2023-02-21T10:15:57;10.27;73.37
73547;SHT30;61807;48.384;-4.386;2023-02-21T10:18:36;10.24;73.44
73547;SHT30;61807;48.384;-4.386;2023-02-21T10:21:11;10.26;73.56
73547;SHT30;61807;48.384;-4.386;2023-02-21T10:23:41;10.26;73.80
73547;SHT30;61807;48.384;-4.386;2023-02-21T10:26:11;10.27;73.95
73547;SHT30;61807;48.384;-4.386;2023-02-21T10:28:37;10.38;73.79
73547;SHT30;61807;48.384;-4.386;2023-02-21T10:31:20;10.46;73.77
73547;SHT30;61807;48.384;-4.386;2023-02-21T10:33:48;10.57;73.80
73547;SHT30;61807;48.384;-4.386;2023-02-21T10:36:18;10.69;73.65
73547;SHT30;61807;48.384;-4.386;2023-02-21T10:38:53;10.79;73.78
73547;SHT30;61807;48.384;-4.386;2023-02-21T10:41:20;10.91;73.84
73547;SHT30;61807;48.384;-4.386;2023-02-21T10:43:50;10.99;73.76
73547;SHT30;61807;48.384;-4.386;2023-02-21T10:46:44;11.08;73.75
73547;SHT30;61807;48.384;-4.386;2023-02-21T10:49:24;11.16;73.62
73547;SHT30;61807;48.384;-4.386;2023-02-21T10:52:05;11.23;73.33
73547;SHT30;61807;48.384;-4.386;2023-02-21T10:54:33;11.29;73.27
73547;SHT30;61807;48.384;-4.386;2023-02-21T10:56:59;11.32;73.09
73547;SHT30;61807;48.384;-4.386;2023-02-21T10:59:34;11.33;73.11
73547;SHT30;61807;48.384;-4.386;2023-02-21T11:02:01;11.33;73.01
73547;SHT30;61807;48.384;-4.386;2023-02-21T11:04:32;11.32;73.05
73547;SHT30;61807;48.384;-4.386;2023-02-21T11:07:00;11.33;73.12
73547;SHT30;61807;48.384;-4.386;2023-02-21T11:09:35;11.34;73.17
73547;SHT30;61807;48.384;-4.386;2023-02-21T11:15:04;11.37;72.99
73547;SHT30;61807;48.384;-4.386;2023-02-21T11:17:31;11.39;73.31
73547;SHT30;61807;48.384;-4.386;2023-02-21T11:20:15;11.43;73.54
73547;SHT30;61807;48.384;-4.386;2023-02-21T11:22:43;11.39;73.58
73547;SHT30;61807;48.384;-4.386;2023-02-21T11:30:36;11.36;73.64
73547;SHT30;61807;48.384;-4.386;2023-02-21T11:33:04;11.44;73.70
73547;SHT30;61807;48.384;-4.386;2023-02-21T11:35:33;11.52;73.61
73547;SHT30;61807;48.384;-4.386;2023-02-21T11:38:02;11.60;73.76
73547;SHT30;61807;48.384;-4.386;2023-02-21T11:40:43;11.64;72.95
73547;SHT30;61807;48.384;-4.386;2023-02-21T11:54:08;11.26;72.56
73547;SHT30;61807;48.384;-4.386;2023-02-21T11:59:27;11.18;73.01
73547;SHT30;61807;48.384;-4.386;2023-02-21T12:22:30;11.77;72.66
73547;SHT30;61807;48.384;-4.386;2023-02-21T12:27:57;12.18;72.45
73547;SHT30;61807;48.384;-4.386;2023-02-21T12:30:32;12.26;72.18
73547;SHT30;61807;48.384;-4.386;2023-02-21T12:33:15;12.33;72.03
73547;SHT30;61807;48.384;-4.386;2023-02-21T12:38:40;12.39;71.93
73547;SHT30;61807;48.384;-4.386;2023-02-21T12:44:12;12.45;72.39
73547;SHT30;61807;48.384;-4.386;2023-02-21T12:51:43;12.36;72.54
73547;SHT30;61807;48.384;-4.386;2023-02-21T12:54:14;12.36;72.63
73547;SHT30;61807;48.384;-4.386;2023-02-21T12:56:44;12.42;72.54
73547;SHT30;61807;48.384;-4.386;2023-02-21T12:59:20;12.45;72.65
73547;SHT30;61807;48.384;-4.386;2023-02-21T13:01:52;12.48;72.83
73547;SHT30;61807;48.384;-4.386;2023-02-21T13:09:55;12.63;72.76
73547;SHT30;61807;48.384;-4.386;2023-02-21T13:12:58;12.69;72.58
73547;SHT30;61807;48.384;-4.386;2023-02-21T13:15:25;12.79;72.76
73547;SHT30;61807;48.384;-4.386;2023-02-21T13:18:08;12.89;72.41
73547;SHT30;61807;48.384;-4.386;2023-02-21T13:20:47;12.96;72.12
73547;SHT30;61807;48.384;-4.386;2023-02-21T13:26:24;13.01;72.15
73547;SHT30;61807;48.384;-4.386;2023-02-21T13:28:54;13.07;72.02
73547;SHT30;61807;48.384;-4.386;2023-02-21T13:31:27;13.17;71.95
73547;SHT30;61807;48.384;-4.386;2023-02-21T13:34:02;13.20;71.76
73547;SHT30;61807;48.384;-4.386;2023-02-21T13:41:47;13.15;71.78
73547;SHT30;61807;48.384;-4.386;2023-02-21T13:44:29;13.00;71.62
73547;SHT30;61807;48.384;-4.386;2023-02-21T13:47:13;12.87;71.62
73547;SHT30;61807;48.384;-4.386;2023-02-21T13:52:50;12.67;71.93
73547;SHT30;61807;48.384;-4.386;2023-02-21T14:21:09;13.34;72.35
73547;SHT30;61807;48.384;-4.386;2023-02-21T14:23:41;13.49;72.04
73547;SHT30;61807;48.384;-4.386;2023-02-21T14:26:34;13.59;71.74
73547;SHT30;61807;48.384;-4.386;2023-02-21T14:34:25;13.85;71.40
73547;SHT30;61807;48.384;-4.386;2023-02-21T14:36:53;13.87;71.15
73547;SHT30;61807;48.384;-4.386;2023-02-21T14:39:22;13.87;71.00
73547;SHT30;61807;48.384;-4.386;2023-02-21T14:42:08;13.85;70.75
73547;SHT30;61807;48.384;-4.386;2023-02-21T14:47:32;13.73;70.83
73547;SHT30;61807;48.384;-4.386;2023-02-21T15:01:57;13.91;70.71
73547;SHT30;61807;48.384;-4.386;2023-02-21T15:07:18;13.95;70.26
73547;SHT30;61807;48.384;-4.386;2023-02-21T15:10:25;13.87;70.16
73547;SHT30;61807;48.384;-4.386;2023-02-21T15:12:55;13.79;70.36
73547;SHT30;61807;48.384;-4.386;2023-02-21T15:15:39;13.78;70.69
73547;SHT30;61807;48.384;-4.386;2023-02-21T15:18:29;13.87;70.79
73547;SHT30;61807;48.384;-4.386;2023-02-21T15:23:43;13.89;70.27
73547;SHT30;61807;48.384;-4.386;2023-02-21T15:26:21;13.91;70.35
73547;SHT30;61807;48.384;-4.386;2023-02-21T15:29:13;14.00;70.21
73547;SHT30;61807;48.384;-4.386;2023-02-21T15:34:17;14.05;70.05
73547;SHT30;61807;48.384;-4.386;2023-02-21T15:36:44;14.06;70.06
73547;SHT30;61807;48.384;-4.386;2023-02-21T15:39:23;14.03;69.97
73547;SHT30;61807;48.384;-4.386;2023-02-21T15:41:50;14.05;69.91
73547;SHT30;61807;48.384;-4.386;2023-02-21T15:44:23;14.05;70.07
73547;SHT30;61807;48.384;-4.386;2023-02-21T15:46:58;14.03;70.14
73547;SHT30;61807;48.384;-4.386;2023-02-21T15:49:32;14.07;70.35
73547;SHT30;61807;48.384;-4.386;2023-02-21T15:52:01;14.09;70.29
73547;SHT30;61807;48.384;-4.386;2023-02-21T15:54:36;14.09;70.19
73547;SHT30;61807;48.384;-4.386;2023-02-21T15:57:22;13.97;70.25
73547;SHT30;61807;48.384;-4.386;2023-02-21T16:00:07;13.89;70.42
73547;SHT30;61807;48.384;-4.386;2023-02-21T16:02:35;13.85;70.45
73547;SHT30;61807;48.384;-4.386;2023-02-21T16:05:00;13.83;70.62
73547;SHT30;61807;48.384;-4.386;2023-02-21T16:07:32;13.80;70.43
73547;SHT30;61807;48.384;-4.386;2023-02-21T16:10:02;13.72;70.55
73547;SHT30;61807;48.384;-4.386;2023-02-21T16:12:53;13.63;70.67
73547;SHT30;61807;48.384;-4.386;2023-02-21T16:17:52;13.59;70.90
73547;SHT30;61807;48.384;-4.386;2023-02-21T16:20:22;13.54;71.01
73547;SHT30;61807;48.384;-4.386;2023-02-21T16:22:50;13.49;70.73
73547;SHT30;61807;48.384;-4.386;2023-02-21T16:27:49;13.34;71.02
73547;SHT30;61807;48.384;-4.386;2023-02-21T16:30:26;13.21;71.16
73547;SHT30;61807;48.384;-4.386;2023-02-21T16:32:58;13.07;71.37
73547;SHT30;61807;48.384;-4.386;2023-02-21T16:35:25;12.96;71.61
73547;SHT30;61807;48.384;-4.386;2023-02-21T16:37:53;12.87;71.86
73547;SHT30;61807;48.384;-4.386;2023-02-21T16:40:22;12.83;72.03
73547;SHT30;61807;48.384;-4.386;2023-02-21T16:42:50;12.70;72.09
73547;SHT30;61807;48.384;-4.386;2023-02-21T16:45:16;12.66;72.36
73547;SHT30;61807;48.384;-4.386;2023-02-21T16:47:41;12.63;72.36
73547;SHT30;61807;48.384;-4.386;2023-02-21T16:50:37;12.53;72.72
73547;SHT30;61807;48.384;-4.386;2023-02-21T16:53:04;12.49;72.74
73547;SHT30;61807;48.384;-4.386;2023-02-21T16:55:29;12.43;72.83
73547;SHT30;61807;48.384;-4.386;2023-02-21T16:57:59;12.38;73.01
73547;SHT30;61807;48.384;-4.386;2023-02-21T17:00:26;12.33;73.23
73547;SHT30;61807;48.384;-4.386;2023-02-21T17:02:51;12.33;73.29
73547;SHT30;61807;48.384;-4.386;2023-02-21T17:05:18;12.36;73.35
73547;SHT30;61807;48.384;-4.386;2023-02-21T17:07:49;12.35;73.33
73547;SHT30;61807;48.384;-4.386;2023-02-21T17:10:15;12.32;73.46
73547;SHT30;61807;48.384;-4.386;2023-02-21T17:12:41;12.29;73.59
73547;SHT30;61807;48.384;-4.386;2023-02-21T17:15:06;12.33;73.66
73547;SHT30;61807;48.384;-4.386;2023-02-21T17:17:32;12.33;73.61
73547;SHT30;61807;48.384;-4.386;2023-02-21T17:19:57;12.31;73.75
73547;SHT30;61807;48.384;-4.386;2023-02-21T17:22:23;12.31;73.87
73547;SHT30;61807;48.384;-4.386;2023-02-21T17:24:49;12.29;73.73
73547;SHT30;61807;48.384;-4.386;2023-02-21T17:27:14;12.26;73.89
73547;SHT30;61807;48.384;-4.386;2023-02-21T17:29:40;12.26;74.05
73547;SHT30;61807;48.384;-4.386;2023-02-21T17:32:05;12.26;73.95
73547;SHT30;61807;48.384;-4.386;2023-02-21T17:34:35;12.28;74.08
73547;SHT30;61807;48.384;-4.386;2023-02-21T17:37:01;12.35;74.02
73547;SHT30;61807;48.384;-4.386;2023-02-21T17:39:26;12.31;74.03
73547;SHT30;61807;48.384;-4.386;2023-02-21T17:41:52;12.32;74.09
73547;SHT30;61807;48.384;-4.386;2023-02-21T17:44:18;12.33;74.23
73547;SHT30;61807;48.384;-4.386;2023-02-21T17:46:52;12.39;74.20
73547;SHT30;61807;48.384;-4.386;2023-02-21T17:49:19;12.45;74.20
73547;SHT30;61807;48.384;-4.386;2023-02-21T17:51:45;12.45;74.09
73547;SHT30;61807;48.384;-4.386;2023-02-21T17:54:12;12.49;74.14
73547;SHT30;61807;48.384;-4.386;2023-02-21T17:56:38;12.46;74.15
73547;SHT30;61807;48.384;-4.386;2023-02-21T17:59:04;12.50;74.33
73547;SHT30;61807;48.384;-4.386;2023-02-21T18:01:29;12.55;74.27
73547;SHT30;61807;48.384;-4.386;2023-02-21T18:03:55;12.62;74.13
73547;SHT30;61807;48.384;-4.386;2023-02-21T18:06:21;12.64;74.20
73547;SHT30;61807;48.384;-4.386;2023-02-21T18:08:46;12.76;74.09
73547;SHT30;61807;48.384;-4.386;2023-02-21T18:11:15;12.76;73.97
73547;SHT30;61807;48.384;-4.386;2023-02-21T18:13:40;12.79;73.98
73547;SHT30;61807;48.384;-4.386;2023-02-21T18:16:06;12.83;73.99
73547;SHT30;61807;48.384;-4.386;2023-02-21T18:18:32;12.96;73.68
73547;SHT30;61807;48.384;-4.386;2023-02-21T18:20:58;13.00;73.68
73547;SHT30;61807;48.384;-4.386;2023-02-21T18:23:25;13.07;73.53
73547;SHT30;61807;48.384;-4.386;2023-02-21T18:25:51;13.06;73.25
73547;SHT30;61807;48.384;-4.386;2023-02-21T18:28:17;13.04;73.47
73547;SHT30;61807;48.384;-4.386;2023-02-21T18:30:42;13.07;73.41
73547;SHT30;61807;48.384;-4.386;2023-02-21T18:33:08;13.10;73.33
73547;SHT30;61807;48.384;-4.386;2023-02-21T18:35:33;13.06;73.42
73547;SHT30;61807;48.384;-4.386;2023-02-21T18:37:58;13.12;73.41
73547;SHT30;61807;48.384;-4.386;2023-02-21T18:40:24;13.15;73.29